sensor_id;sensor_type;location;lat;lon;timestamp;pressure;altitude;pressure_sealevel;temperature;humidity
58367;BME280;57745;42.524;12.052;2022-08-11T00:04:10;96864.84;;;29.89;34.27
58367;BME280;57745;42.524;12.052;2022-08-11T00:20:09;96854.88;;;29.80;34.50
58367;BME280;57745;42.524;12.052;2022-08-11T00:33:14;96850.53;;;29.72;34.51
58367;BME280;57745;42.524;12.052;2022-08-11T00:49:37;96845.63;;;29.64;34.67
58367;BME280;57745;42.524;12.052;2022-08-11T02:35:13;96796.69;;;29.50;34.55
58367;BME280;57745;42.524;12.052;2022-08-11T02:48:28;96791.50;;;29.54;34.53
58367;BME280;57745;42.524;12.052;2022-08-11T03:18:33;96779.38;;;29.52;34.63
58367;BME280;57745;42.524;12.052;2022-08-11T03:34:32;96778.19;;;29.47;34.85
58367;BME280;57745;42.524;12.052;2022-08-11T04:04:21;96785.09;;;29.46;34.96
58367;BME280;57745;42.524;12.052;2022-08-11T04:50:44;96794.91;;;29.40;35.56
58367;BME280;57745;42.524;12.052;2022-08-11T05:33:45;96810.31;;;29.20;36.35
58367;BME280;57745;42.524;12.052;2022-08-11T05:39:56;96827.69;;;29.26;36.45
58367;BME280;57745;42.524;12.052;2022-08-11T06:10:32;96827.06;;;29.20;36.71
58367;BME280;57745;42.524;12.052;2022-08-11T06:27:03;96827.50;;;29.24;37.05
58367;BME280;57745;42.524;12.052;2022-08-11T06:56:22;96828.78;;;29.23;37.10
58367;BME280;57745;42.524;12.052;2022-08-11T07:10:32;96835.88;;;29.24;37.24
58367;BME280;57745;42.524;12.052;2022-08-11T07:39:41;96829.94;;;28.93;37.66
58367;BME280;57745;42.524;12.052;2022-08-11T07:55:34;96839.25;;;29.09;37.28
58367;BME280;57745;42.524;12.052;2022-08-11T08:11:27;96838.13;;;28.91;37.73
58367;BME280;57745;42.524;12.052;2022-08-11T08:24:43;96825.53;;;28.98;37.50
58367;BME280;57745;42.524;12.052;2022-08-11T08:54:57;96820.94;;;28.87;37.50
58367;BME280;57745;42.524;12.052;2022-08-11T09:10:55;96809.69;;;28.80;37.62
58367;BME280;57745;42.524;12.052;2022-08-11T09:40:33;96831.16;;;29.19;36.25
58367;BME280;57745;42.524;12.052;2022-08-11T09:54:15;96819.53;;;28.81;37.79
58367;BME280;57745;42.524;12.052;2022-08-11T09:56:42;96824.91;;;28.66;37.44
58367;BME280;57745;42.524;12.052;2022-08-11T09:59:27;96816.44;;;28.58;37.91
58367;BME280;57745;42.524;12.052;2022-08-11T10:02:01;96818.09;;;29.01;37.20
58367;BME280;57745;42.524;12.052;2022-08-11T10:04:41;96816.84;;;28.88;37.22
58367;BME280;57745;42.524;12.052;2022-08-11T10:07:10;96814.50;;;28.92;36.99
58367;BME280;57745;42.524;12.052;2022-08-11T10:09:51;96822.00;;;28.58;37.20
58367;BME280;57745;42.524;12.052;2022-08-11T10:12:25;96816.63;;;28.73;37.34
58367;BME280;57745;42.524;12.052;2022-08-11T10:14:55;96818.03;;;28.93;36.97
58367;BME280;57745;42.524;12.052;2022-08-11T10:17:42;96813.31;;;28.75;37.60
58367;BME280;57745;42.524;12.052;2022-08-11T10:20:29;96804.59;;;28.91;37.01
58367;BME280;57745;42.524;12.052;2022-08-11T10:22:57;96811.44;;;29.04;36.95
58367;BME280;57745;42.524;12.052;2022-08-11T10:25:41;96802.84;;;29.02;36.69
58367;BME280;57745;42.524;12.052;2022-08-11T10:28:26;96806.53;;;28.70;36.88
58367;BME280;57745;42.524;12.052;2022-08-11T10:30:53;96800.97;;;28.83;36.88
58367;BME280;57745;42.524;12.052;2022-08-11T10:33:39;96799.69;;;28.58;37.30
58367;BME280;57745;42.524;12.052;2022-08-11T10:36:24;96787.97;;;28.86;36.38
58367;BME280;57745;42.524;12.052;2022-08-11T10:38:51;96794.53;;;28.88;36.74
58367;BME280;57745;42.524;12.052;2022-08-11T10:41:18;96787.94;;;28.99;35.61
58367;BME280;57745;42.524;12.052;2022-08-11T10:44:04;96784.31;;;28.91;36.10
58367;BME280;57745;42.524;12.052;2022-08-11T10:46:30;96782.34;;;28.99;36.26
58367;BME280;57745;42.524;12.052;2022-08-11T10:49:29;96789.94;;;29.12;35.95
58367;BME280;57745;42.524;12.052;2022-08-11T10:51:56;96784.53;;;28.93;36.26
58367;BME280;57745;42.524;12.052;2022-08-11T10:54:41;96780.91;;;29.06;35.90
58367;BME280;57745;42.524;12.052;2022-08-11T10:57:27;96778.13;;;29.06;35.81
58367;BME280;57745;42.524;12.052;2022-08-11T11:00:13;96783.16;;;29.07;36.05
58367;BME280;57745;42.524;12.052;2022-08-11T11:02:40;96769.47;;;28.96;35.61
58367;BME280;57745;42.524;12.052;2022-08-11T11:08:05;96767.59;;;29.12;36.13
58367;BME280;57745;42.524;12.052;2022-08-11T11:10:53;96774.00;;;29.20;35.86
58367;BME280;57745;42.524;12.052;2022-08-11T11:13:20;96771.56;;;29.16;36.26
58367;BME280;57745;42.524;12.052;2022-08-11T11:16:06;96770.66;;;29.21;35.84
58367;BME280;57745;42.524;12.052;2022-08-11T11:18:51;96760.75;;;29.00;35.86
58367;BME280;57745;42.524;12.052;2022-08-11T11:21:19;96755.72;;;29.19;35.61
58367;BME280;57745;42.524;12.052;2022-08-11T11:34:50;96754.31;;;29.25;35.35
58367;BME280;57745;42.524;12.052;2022-08-11T11:37:24;96755.88;;;29.34;35.04
58367;BME280;57745;42.524;12.052;2022-08-11T11:39:52;96753.56;;;29.25;34.55
58367;BME280;57745;42.524;12.052;2022-08-11T11:42:20;96751.03;;;29.35;34.89
58367;BME280;57745;42.524;12.052;2022-08-11T11:44:47;96746.41;;;29.37;34.97
58367;BME280;57745;42.524;12.052;2022-08-11T11:47:13;96739.56;;;29.38;34.61
58367;BME280;57745;42.524;12.052;2022-08-11T11:49:41;96742.13;;;29.36;34.91
58367;BME280;57745;42.524;12.052;2022-08-11T11:52:13;96736.22;;;29.40;34.89
58367;BME280;57745;42.524;12.052;2022-08-11T11:54:39;96740.31;;;29.39;34.49
58367;BME280;57745;42.524;12.052;2022-08-11T11:57:06;96742.47;;;29.33;34.88
58367;BME280;57745;42.524;12.052;2022-08-11T11:59:51;96734.06;;;29.33;34.92
58367;BME280;57745;42.524;12.052;2022-08-11T12:02:39;96744.72;;;29.34;35.12
58367;BME280;57745;42.524;12.052;2022-08-11T12:05:07;96736.13;;;29.32;34.84
58367;BME280;57745;42.524;12.052;2022-08-11T12:07:35;96733.31;;;29.32;34.83
58367;BME280;57745;42.524;12.052;2022-08-11T12:10:19;96724.19;;;29.31;35.00
58367;BME280;57745;42.524;12.052;2022-08-11T12:12:46;96727.19;;;29.34;34.88
58367;BME280;57745;42.524;12.052;2022-08-11T12:15:31;96717.69;;;29.29;35.05
58367;BME280;57745;42.524;12.052;2022-08-11T12:17:58;96711.13;;;29.26;35.32
58367;BME280;57745;42.524;12.052;2022-08-11T12:20:24;96723.06;;;29.27;35.04
58367;BME280;57745;42.524;12.052;2022-08-11T12:22:50;96716.38;;;29.30;35.09
58367;BME280;57745;42.524;12.052;2022-08-11T12:25:35;96718.88;;;29.20;35.01
58367;BME280;57745;42.524;12.052;2022-08-11T12:28:20;96714.19;;;29.15;35.05
58367;BME280;57745;42.524;12.052;2022-08-11T12:30:49;96707.38;;;29.24;34.66
58367;BME280;57745;42.524;12.052;2022-08-11T12:33:16;96711.25;;;29.21;34.63
58367;BME280;57745;42.524;12.052;2022-08-11T12:35:43;96708.88;;;29.25;34.77
58367;BME280;57745;42.524;12.052;2022-08-11T12:38:09;96696.63;;;29.28;34.75
58367;BME280;57745;42.524;12.052;2022-08-11T12:40:37;96696.63;;;29.28;34.69
58367;BME280;57745;42.524;12.052;2022-08-11T12:43:23;96694.13;;;29.38;34.13
58367;BME280;57745;42.524;12.052;2022-08-11T12:46:18;96694.03;;;29.30;33.50
58367;BME280;57745;42.524;12.052;2022-08-11T12:48:47;96686.78;;;29.35;34.50
58367;BME280;57745;42.524;12.052;2022-08-11T12:51:37;96692.81;;;29.39;34.28
58367;BME280;57745;42.524;12.052;2022-08-11T12:57:01;96676.66;;;29.45;33.98
58367;BME280;57745;42.524;12.052;2022-08-11T12:59:47;96676.66;;;29.45;33.82
58367;BME280;57745;42.524;12.052;2022-08-11T13:02:33;96669.56;;;29.44;34.04
58367;BME280;57745;42.524;12.052;2022-08-11T13:05:17;96668.75;;;29.36;33.99
58367;BME280;57745;42.524;12.052;2022-08-11T13:07:44;96667.25;;;29.35;34.24
58367;BME280;57745;42.524;12.052;2022-08-11T13:10:14;96663.69;;;29.34;34.51
58367;BME280;57745;42.524;12.052;2022-08-11T13:13:02;96668.75;;;29.36;33.65
58367;BME280;57745;42.524;12.052;2022-08-11T13:15:28;96662.41;;;29.35;34.00
58367;BME280;57745;42.524;12.052;2022-08-11T13:17:55;96663.97;;;29.44;33.64
58367;BME280;57745;42.524;12.052;2022-08-11T13:20:22;96663.03;;;29.41;33.87
58367;BME280;57745;42.524;12.052;2022-08-11T13:22:50;96667.34;;;29.42;33.62
58367;BME280;57745;42.524;12.052;2022-08-11T13:25:18;96657.84;;;29.45;33.71
58367;BME280;57745;42.524;12.052;2022-08-11T13:27:46;96653.41;;;29.50;33.57
58367;BME280;57745;42.524;12.052;2022-08-11T13:30:16;96652.13;;;29.51;33.56
58367;BME280;57745;42.524;12.052;2022-08-11T13:33:01;96650.38;;;29.40;33.75
58367;BME280;57745;42.524;12.052;2022-08-11T13:35:29;96647.56;;;29.40;33.49
58367;BME280;57745;42.524;12.052;2022-08-11T13:37:57;96648.88;;;29.39;33.40
58367;BME280;57745;42.524;12.052;2022-08-11T13:40:26;96654.66;;;29.41;33.61
58367;BME280;57745;42.524;12.052;2022-08-11T13:42:53;96642.75;;;29.41;33.25
58367;BME280;57745;42.524;12.052;2022-08-11T13:45:21;96643.50;;;29.41;33.76
58367;BME280;57745;42.524;12.052;2022-08-11T13:47:48;96641.56;;;29.36;33.50
58367;BME280;57745;42.524;12.052;2022-08-11T13:50:16;96644.78;;;29.40;33.46
58367;BME280;57745;42.524;12.052;2022-08-11T13:52:43;96644.88;;;29.35;33.17
58367;BME280;57745;42.524;12.052;2022-08-11T13:55:11;96638.66;;;29.42;33.51
58367;BME280;57745;42.524;12.052;2022-08-11T13:57:55;96650.16;;;29.38;33.45
58367;BME280;57745;42.524;12.052;2022-08-11T14:00:21;96651.28;;;29.43;33.29
58367;BME280;57745;42.524;12.052;2022-08-11T14:02:48;96639.75;;;29.39;33.46
58367;BME280;57745;42.524;12.052;2022-08-11T14:05:17;96640.06;;;29.35;33.33
58367;BME280;57745;42.524;12.052;2022-08-11T14:07:50;96632.66;;;29.38;33.12
58367;BME280;57745;42.524;12.052;2022-08-11T14:10:18;96631.56;;;29.41;33.30
58367;BME280;57745;42.524;12.052;2022-08-11T14:12:51;96640.88;;;29.43;32.86
58367;BME280;57745;42.524;12.052;2022-08-11T14:15:41;96635.09;;;29.41;33.12
58367;BME280;57745;42.524;12.052;2022-08-11T14:18:16;96635.28;;;29.43;33.07
58367;BME280;57745;42.524;12.052;2022-08-11T14:20:42;96637.47;;;29.37;33.13
58367;BME280;57745;42.524;12.052;2022-08-11T14:23:32;96629.31;;;29.39;32.71
58367;BME280;57745;42.524;12.052;2022-08-11T14:26:00;96623.78;;;29.47;32.40
58367;BME280;57745;42.524;12.052;2022-08-11T14:28:44;96623.03;;;29.46;32.46
58367;BME280;57745;42.524;12.052;2022-08-11T14:31:15;96617.69;;;29.35;32.54
58367;BME280;57745;42.524;12.052;2022-08-11T14:33:42;96621.13;;;29.41;32.72
58367;BME280;57745;42.524;12.052;2022-08-11T14:36:10;96619.44;;;29.38;32.01
58367;BME280;57745;42.524;12.052;2022-08-11T14:38:37;96623.25;;;29.27;32.21
58367;BME280;57745;42.524;12.052;2022-08-11T14:41:05;96622.22;;;29.38;32.01
58367;BME280;57745;42.524;12.052;2022-08-11T14:43:50;96625.44;;;29.42;31.79
58367;BME280;57745;42.524;12.052;2022-08-11T14:46:35;96619.34;;;29.51;31.59
58367;BME280;57745;42.524;12.052;2022-08-11T14:49:19;96615.72;;;29.43;31.65
58367;BME280;57745;42.524;12.052;2022-08-11T14:51:47;96613.75;;;29.51;31.82
58367;BME280;57745;42.524;12.052;2022-08-11T14:54:14;96615.38;;;29.47;31.97
58367;BME280;57745;42.524;12.052;2022-08-11T14:56:59;96611.84;;;29.46;31.59
58367;BME280;57745;42.524;12.052;2022-08-11T14:59:25;96614.50;;;29.52;32.00
58367;BME280;57745;42.524;12.052;2022-08-11T15:01:51;96609.75;;;29.39;32.13
58367;BME280;57745;42.524;12.052;2022-08-11T15:04:37;96609.25;;;29.48;31.74
58367;BME280;57745;42.524;12.052;2022-08-11T15:07:03;96609.88;;;29.54;31.85
58367;BME280;57745;42.524;12.052;2022-08-11T15:09:30;96595.81;;;29.47;29.23
58367;BME280;57745;42.524;12.052;2022-08-11T15:11:56;96594.31;;;29.46;31.71
58367;BME280;57745;42.524;12.052;2022-08-11T15:14:41;96596.78;;;29.49;31.29
58367;BME280;57745;42.524;12.052;2022-08-11T15:17:26;96597.09;;;29.38;31.27
58367;BME280;57745;42.524;12.052;2022-08-11T15:19:52;96589.69;;;29.48;31.07
58367;BME280;57745;42.524;12.052;2022-08-11T15:22:37;96588.19;;;29.47;31.00
58367;BME280;57745;42.524;12.052;2022-08-11T15:25:22;96591.41;;;29.51;31.53
58367;BME280;57745;42.524;12.052;2022-08-11T15:27:49;96586.56;;;29.52;31.79
58367;BME280;57745;42.524;12.052;2022-08-11T15:30:36;96579.66;;;29.53;31.49
58367;BME280;57745;42.524;12.052;2022-08-11T15:33:21;96570.47;;;29.45;31.57
58367;BME280;57745;42.524;12.052;2022-08-11T15:36:07;96578.13;;;29.44;31.64
58367;BME280;57745;42.524;12.052;2022-08-11T15:39:11;96580.34;;;29.46;31.82
58367;BME280;57745;42.524;12.052;2022-08-11T15:42:06;96581.66;;;29.45;31.82
58367;BME280;57745;42.524;12.052;2022-08-11T15:44:54;96580.84;;;29.37;31.75
58367;BME280;57745;42.524;12.052;2022-08-11T15:47:54;96572.16;;;29.40;32.03
58367;BME280;57745;42.524;12.052;2022-08-11T15:50:26;96570.66;;;29.39;31.60
58367;BME280;57745;42.524;12.052;2022-08-11T15:55:53;96559.69;;;29.41;31.64
58367;BME280;57745;42.524;12.052;2022-08-11T15:58:20;96563.97;;;29.42;31.76
58367;BME280;57745;42.524;12.052;2022-08-11T16:01:24;96561.19;;;29.42;31.90
58367;BME280;57745;42.524;12.052;2022-08-11T16:04:13;96558.84;;;29.33;32.02
58367;BME280;57745;42.524;12.052;2022-08-11T16:07:05;96551.63;;;29.38;31.88
58367;BME280;57745;42.524;12.052;2022-08-11T16:09:38;96549.25;;;29.42;31.86
58367;BME280;57745;42.524;12.052;2022-08-11T16:12:07;96556.31;;;29.43;31.94
58367;BME280;57745;42.524;12.052;2022-08-11T16:14:36;96558.50;;;29.37;32.03
58367;BME280;57745;42.524;12.052;2022-08-11T16:17:23;96554.09;;;29.41;31.95
58367;BME280;57745;42.524;12.052;2022-08-11T16:19:52;96556.06;;;29.05;31.41
58367;BME280;57745;42.524;12.052;2022-08-11T16:22:27;96555.75;;;29.16;32.11
58367;BME280;57745;42.524;12.052;2022-08-11T16:25:07;96555.28;;;29.33;31.63
58367;BME280;57745;42.524;12.052;2022-08-11T16:27:37;96547.66;;;29.33;31.66
58367;BME280;57745;42.524;12.052;2022-08-11T16:30:05;96555.28;;;29.33;31.46
58367;BME280;57745;42.524;12.052;2022-08-11T16:32:33;96561.44;;;29.31;31.72
58367;BME280;57745;42.524;12.052;2022-08-11T16:35:04;96560.69;;;29.30;31.55
58367;BME280;57745;42.524;12.052;2022-08-11T16:37:50;96558.72;;;29.18;31.75
58367;BME280;57745;42.524;12.052;2022-08-11T16:40:35;96556.56;;;29.24;32.02
58367;BME280;57745;42.524;12.052;2022-08-11T16:43:05;96559.84;;;29.15;32.45
58367;BME280;57745;42.524;12.052;2022-08-11T16:45:51;96565.53;;;29.02;32.83
58367;BME280;57745;42.524;12.052;2022-08-11T16:48:37;96559.41;;;29.03;32.14
58367;BME280;57745;42.524;12.052;2022-08-11T16:51:09;96559.41;;;29.03;32.42
58367;BME280;57745;42.524;12.052;2022-08-11T16:53:36;96564.53;;;29.20;32.07
58367;BME280;57745;42.524;12.052;2022-08-11T16:56:05;96563.53;;;29.10;31.73
58367;BME280;57745;42.524;12.052;2022-08-11T16:58:33;96560.91;;;29.04;32.63
58367;BME280;57745;42.524;12.052;2022-08-11T17:01:20;96550.34;;;28.89;32.43
58367;BME280;57745;42.524;12.052;2022-08-11T17:03:52;96560.34;;;28.85;33.13
58367;BME280;57745;42.524;12.052;2022-08-11T17:06:41;96561.44;;;29.03;33.15
58367;BME280;57745;42.524;12.052;2022-08-11T17:09:29;96558.78;;;28.97;31.86
58367;BME280;57745;42.524;12.052;2022-08-11T17:12:17;96562.66;;;28.94;33.23
58367;BME280;57745;42.524;12.052;2022-08-11T17:15:06;96555.34;;;29.12;32.05
58367;BME280;57745;42.524;12.052;2022-08-11T17:17:56;96565.53;;;29.02;32.56
58367;BME280;57745;42.524;12.052;2022-08-11T17:20:23;96561.66;;;29.05;32.30
58367;BME280;57745;42.524;12.052;2022-08-11T17:22:51;96549.56;;;29.10;32.09
58367;BME280;57745;42.524;12.052;2022-08-11T17:25:36;96555.41;;;29.19;32.87
58367;BME280;57745;42.524;12.052;2022-08-11T17:28:04;96558.56;;;29.16;32.03
58367;BME280;57745;42.524;12.052;2022-08-11T17:30:31;96565.72;;;29.04;32.68
58367;BME280;57745;42.524;12.052;2022-08-11T17:33:15;96567.69;;;29.16;32.98
58367;BME280;57745;42.524;12.052;2022-08-11T17:36:01;96563.53;;;29.10;32.90
58367;BME280;57745;42.524;12.052;2022-08-11T17:38:28;96560.47;;;29.00;32.51
58367;BME280;57745;42.524;12.052;2022-08-11T17:40:58;96566.31;;;29.10;32.44
58367;BME280;57745;42.524;12.052;2022-08-11T17:43:44;96569.22;;;29.25;32.75
58367;BME280;57745;42.524;12.052;2022-08-11T17:46:28;96570.09;;;29.41;31.72
58367;BME280;57745;42.524;12.052;2022-08-11T17:49:14;96579.41;;;29.43;31.19
58367;BME280;57745;42.524;12.052;2022-08-11T17:51:43;96572.22;;;29.91;31.04
58367;BME280;57745;42.524;12.052;2022-08-11T17:54:30;96580.94;;;30.24;31.03
58367;BME280;57745;42.524;12.052;2022-08-11T17:57:31;96583.41;;;30.50;30.78
58367;BME280;57745;42.524;12.052;2022-08-11T18:00:16;96582.72;;;30.65;30.70
58367;BME280;57745;42.524;12.052;2022-08-11T18:02:43;96580.66;;;30.73;30.58
58367;BME280;57745;42.524;12.052;2022-08-11T18:05:29;96587.00;;;30.81;29.99
58367;BME280;57745;42.524;12.052;2022-08-11T18:07:57;96587.94;;;30.91;29.81
58367;BME280;57745;42.524;12.052;2022-08-11T18:10:43;96590.94;;;30.93;30.31
58367;BME280;57745;42.524;12.052;2022-08-11T18:13:30;96603.06;;;30.96;29.80
58367;BME280;57745;42.524;12.052;2022-08-11T18:16:14;96597.09;;;30.92;29.83
58367;BME280;57745;42.524;12.052;2022-08-11T18:18:58;96604.03;;;30.98;29.64
58367;BME280;57745;42.524;12.052;2022-08-11T18:21:44;96598.22;;;30.96;30.14
58367;BME280;57745;42.524;12.052;2022-08-11T18:24:34;96606.63;;;30.96;30.09
58367;BME280;57745;42.524;12.052;2022-08-11T18:27:20;96612.78;;;30.87;30.22
58367;BME280;57745;42.524;12.052;2022-08-11T18:30:05;96615.41;;;30.85;30.23
58367;BME280;57745;42.524;12.052;2022-08-11T18:32:51;96613.53;;;30.95;29.84
58367;BME280;57745;42.524;12.052;2022-08-11T18:35:37;96616.13;;;30.93;29.94
58367;BME280;57745;42.524;12.052;2022-08-11T18:38:22;96627.16;;;30.91;30.12
58367;BME280;57745;42.524;12.052;2022-08-11T18:41:09;96627.16;;;30.91;29.32
58367;BME280;57745;42.524;12.052;2022-08-11T18:43:57;96629.78;;;30.89;29.47
58367;BME280;57745;42.524;12.052;2022-08-11T18:46:43;96621.00;;;30.78;29.73
58367;BME280;57745;42.524;12.052;2022-08-11T18:49:33;96623.97;;;30.80;29.54
58367;BME280;57745;42.524;12.052;2022-08-11T18:52:18;96622.09;;;30.82;29.71
58367;BME280;57745;42.524;12.052;2022-08-11T18:55:08;96626.97;;;30.82;30.01
58367;BME280;57745;42.524;12.052;2022-08-11T18:57:54;96627.91;;;30.77;30.22
58367;BME280;57745;42.524;12.052;2022-08-11T19:00:41;96625.47;;;30.73;30.16
58367;BME280;57745;42.524;12.052;2022-08-11T19:03:29;96619.31;;;30.75;29.93
58367;BME280;57745;42.524;12.052;2022-08-11T19:06:17;96625.47;;;30.73;30.01
58367;BME280;57745;42.524;12.052;2022-08-11T19:09:04;96627.31;;;30.63;30.01
58367;BME280;57745;42.524;12.052;2022-08-11T19:11:49;96634.59;;;30.66;29.32
58367;BME280;57745;42.524;12.052;2022-08-11T19:14:35;96637.75;;;30.62;29.88
58367;BME280;57745;42.524;12.052;2022-08-11T19:17:21;96638.31;;;30.61;29.90
58367;BME280;57745;42.524;12.052;2022-08-11T19:20:10;96647.28;;;30.67;29.77
58367;BME280;57745;42.524;12.052;2022-08-11T19:22:56;96638.50;;;30.63;29.21
58367;BME280;57745;42.524;12.052;2022-08-11T19:25:45;96636.78;;;30.52;29.76
58367;BME280;57745;42.524;12.052;2022-08-11T19:28:32;96640.34;;;30.53;29.85
58367;BME280;57745;42.524;12.052;2022-08-11T19:31:18;96649.28;;;30.51;29.92
58367;BME280;57745;42.524;12.052;2022-08-11T19:34:04;96654.31;;;30.53;29.98
58367;BME280;57745;42.524;12.052;2022-08-11T19:36:49;96654.16;;;30.58;29.91
58367;BME280;57745;42.524;12.052;2022-08-11T19:39:35;96651.88;;;30.49;29.66
58367;BME280;57745;42.524;12.052;2022-08-11T19:42:20;96656.41;;;30.60;29.29
58367;BME280;57745;42.524;12.052;2022-08-11T19:45:05;96656.72;;;30.49;29.95
58367;BME280;57745;42.524;12.052;2022-08-11T19:48:08;96665.31;;;30.51;29.99
58367;BME280;57745;42.524;12.052;2022-08-11T19:50:53;96663.81;;;30.50;29.87
58367;BME280;57745;42.524;12.052;2022-08-11T19:53:38;96663.81;;;30.50;29.48
58367;BME280;57745;42.524;12.052;2022-08-11T19:56:23;96671.28;;;30.47;29.82
58367;BME280;57745;42.524;12.052;2022-08-11T19:59:08;96668.28;;;30.45;29.49
58367;BME280;57745;42.524;12.052;2022-08-11T20:01:52;96663.41;;;30.38;30.26
58367;BME280;57745;42.524;12.052;2022-08-11T20:04:36;96674.63;;;30.46;29.75
58367;BME280;57745;42.524;12.052;2022-08-11T20:07:21;96666.59;;;30.42;30.00
58367;BME280;57745;42.524;12.052;2022-08-11T20:10:07;96670.13;;;30.43;29.68
58367;BME280;57745;42.524;12.052;2022-08-11T20:12:52;96662.13;;;30.39;30.11
58367;BME280;57745;42.524;12.052;2022-08-11T20:15:38;96664.53;;;30.43;29.91
58367;BME280;57745;42.524;12.052;2022-08-11T20:18:24;96669.75;;;30.39;30.09
58367;BME280;57745;42.524;12.052;2022-08-11T20:21:09;96670.13;;;30.35;30.09
58367;BME280;57745;42.524;12.052;2022-08-11T20:23:54;96677.75;;;30.34;29.86
58367;BME280;57745;42.524;12.052;2022-08-11T20:26:41;96677.75;;;30.34;30.02
58367;BME280;57745;42.524;12.052;2022-08-11T20:29:27;96681.69;;;30.39;30.14
58367;BME280;57745;42.524;12.052;2022-08-11T20:32:14;96684.66;;;30.33;29.71
58367;BME280;57745;42.524;12.052;2022-08-11T20:34:59;96684.09;;;30.27;30.33
58367;BME280;57745;42.524;12.052;2022-08-11T20:37:44;96680.16;;;30.30;30.22
58367;BME280;57745;42.524;12.052;2022-08-11T20:40:29;96684.44;;;30.31;29.74
58367;BME280;57745;42.524;12.052;2022-08-11T20:43:15;96683.34;;;30.27;30.16
58367;BME280;57745;42.524;12.052;2022-08-11T20:46:04;96677.75;;;30.27;30.12
58367;BME280;57745;42.524;12.052;2022-08-11T20:48:50;96688.19;;;30.26;30.53
58367;BME280;57745;42.524;12.052;2022-08-11T20:51:38;96694.28;;;30.17;30.25
58367;BME280;57745;42.524;12.052;2022-08-11T20:54:25;96690.38;;;30.20;30.47
58367;BME280;57745;42.524;12.052;2022-08-11T20:57:11;96690.56;;;30.22;30.22
58367;BME280;57745;42.524;12.052;2022-08-11T20:59:57;96692.22;;;30.18;30.22
58367;BME280;57745;42.524;12.052;2022-08-11T21:02:42;96682.91;;;30.15;30.70
58367;BME280;57745;42.524;12.052;2022-08-11T21:05:28;96688.84;;;30.12;30.60
58367;BME280;57745;42.524;12.052;2022-08-11T21:08:14;96701.75;;;30.15;30.37
58367;BME280;57745;42.524;12.052;2022-08-11T21:11:00;96695.75;;;30.11;30.67
58367;BME280;57745;42.524;12.052;2022-08-11T21:13:44;96692.75;;;30.09;30.30
58367;BME280;57745;42.524;12.052;2022-08-11T21:16:33;96694.03;;;30.08;30.42
58367;BME280;57745;42.524;12.052;2022-08-11T21:19:38;96687.91;;;30.09;30.31
58367;BME280;57745;42.524;12.052;2022-08-11T21:22:37;96697.22;;;30.04;30.83
58367;BME280;57745;42.524;12.052;2022-08-11T21:25:23;96697.38;;;30.06;30.70
58367;BME280;57745;42.524;12.052;2022-08-11T21:28:10;96692.72;;;30.01;30.47
58367;BME280;57745;42.524;12.052;2022-08-11T21:30:55;96695.88;;;30.05;30.54
58367;BME280;57745;42.524;12.052;2022-08-11T21:33:41;96689.72;;;29.99;30.87
58367;BME280;57745;42.524;12.052;2022-08-11T21:36:26;96688.63;;;30.02;30.53
58367;BME280;57745;42.524;12.052;2022-08-11T21:39:16;96689.72;;;29.99;30.87
58367;BME280;57745;42.524;12.052;2022-08-11T21:42:03;96683.38;;;29.98;30.62
58367;BME280;57745;42.524;12.052;2022-08-11T21:44:48;96685.63;;;30.00;30.58
58367;BME280;57745;42.524;12.052;2022-08-11T21:47:33;96686.72;;;29.97;30.70
58367;BME280;57745;42.524;12.052;2022-08-11T21:50:18;96687.88;;;30.02;30.48
58367;BME280;57745;42.524;12.052;2022-08-11T21:53:02;96689.44;;;29.89;31.01
58367;BME280;57745;42.524;12.052;2022-08-11T21:55:46;96686.28;;;29.93;30.59
58367;BME280;57745;42.524;12.052;2022-08-11T21:58:31;96681.53;;;30.01;30.58
58367;BME280;57745;42.524;12.052;2022-08-11T22:01:17;96684.81;;;29.92;30.86
58367;BME280;57745;42.524;12.052;2022-08-11T22:04:02;96679.41;;;29.94;30.64
58367;BME280;57745;42.524;12.052;2022-08-11T22:06:48;96670.09;;;29.91;30.81
58367;BME280;57745;42.524;12.052;2022-08-11T22:09:33;96681.41;;;29.86;30.62
58367;BME280;57745;42.524;12.052;2022-08-11T22:12:18;96678.06;;;29.87;30.92
58367;BME280;57745;42.524;12.052;2022-08-11T22:15:02;96668.31;;;29.81;30.83
58367;BME280;57745;42.524;12.052;2022-08-11T22:17:46;96675.81;;;29.86;30.78
58367;BME280;57745;42.524;12.052;2022-08-11T22:20:31;96667.44;;;29.86;30.56
58367;BME280;57745;42.524;12.052;2022-08-11T22:23:16;96665.16;;;29.77;30.90
58367;BME280;57745;42.524;12.052;2022-08-11T22:26:02;96663.84;;;29.78;30.58
58367;BME280;57745;42.524;12.052;2022-08-11T22:28:46;96665.69;;;29.75;30.75
58367;BME280;57745;42.524;12.052;2022-08-11T22:31:31;96661.22;;;29.80;30.44
58367;BME280;57745;42.524;12.052;2022-08-11T22:34:17;96662.16;;;29.75;30.74
58367;BME280;57745;42.524;12.052;2022-08-11T22:37:02;96657.50;;;29.77;30.71
58367;BME280;57745;42.524;12.052;2022-08-11T22:39:47;96648.19;;;29.82;30.56
58367;BME280;57745;42.524;12.052;2022-08-11T22:42:32;96648.16;;;29.75;30.59
58367;BME280;57745;42.524;12.052;2022-08-11T22:45:17;96641.84;;;29.82;30.64
58367;BME280;57745;42.524;12.052;2022-08-11T22:48:04;96650.75;;;29.73;30.56
58367;BME280;57745;42.524;12.052;2022-08-11T23:05:14;96638.50;;;29.76;30.23
58367;BME280;57745;42.524;12.052;2022-08-11T23:07:59;96630.56;;;29.59;30.74
58367;BME280;57745;42.524;12.052;2022-08-11T23:10:45;96623.53;;;29.65;30.36
58367;BME280;57745;42.524;12.052;2022-08-11T23:13:33;96623.53;;;29.65;30.55
58367;BME280;57745;42.524;12.052;2022-08-11T23:16:18;96622.03;;;29.64;30.44
58367;BME280;57745;42.524;12.052;2022-08-11T23:19:03;96626.31;;;29.65;30.65
58367;BME280;57745;42.524;12.052;2022-08-11T23:21:48;96620.91;;;29.67;30.19